sensor_id;sensor_type;location;lat;lon;timestamp;pressure;altitude;pressure_sealevel;temperature;humidity
58769;BME280;44536;47.474;19.056;2022-08-01T00:00:54;100283.56;;;15.79;76.67
58769;BME280;44536;47.474;19.056;2022-08-01T00:03:57;100283.56;;;15.79;75.65
58769;BME280;44536;47.474;19.056;2022-08-01T00:06:59;100291.75;;;15.95;74.43
58769;BME280;44536;47.474;19.056;2022-08-01T00:10:03;100284.56;;;15.96;74.70
58769;BME280;44536;47.474;19.056;2022-08-01T00:13:06;100286.41;;;15.95;75.08
58769;BME280;44536;47.474;19.056;2022-08-01T00:16:08;100281.22;;;15.94;74.66
58769;BME280;44536;47.474;19.056;2022-08-01T00:19:10;100289.16;;;15.85;74.97
58769;BME280;44536;47.474;19.056;2022-08-01T00:22:13;100286.22;;;15.79;75.04
58769;BME280;44536;47.474;19.056;2022-08-01T00:25:15;100280.06;;;15.96;74.45
58769;BME280;44536;47.474;19.056;2022-08-01T00:28:17;100270.13;;;15.88;75.81
58769;BME280;44536;47.474;19.056;2022-08-01T00:31:19;100272.13;;;15.86;76.03
58769;BME280;44536;47.474;19.056;2022-08-01T00:34:22;100263.47;;;15.75;75.54
58769;BME280;44536;47.474;19.056;2022-08-01T00:37:24;100264.16;;;15.77;76.04
58769;BME280;44536;47.474;19.056;2022-08-01T00:40:27;100276.06;;;15.65;77.59
58769;BME280;44536;47.474;19.056;2022-08-01T00:43:29;100266.75;;;15.69;76.77
58769;BME280;44536;47.474;19.056;2022-08-01T00:46:32;100269.03;;;15.64;76.75
58769;BME280;44536;47.474;19.056;2022-08-01T00:49:35;100270.03;;;15.63;77.02
58769;BME280;44536;47.474;19.056;2022-08-01T00:52:38;100265.81;;;15.60;75.49
58769;BME280;44536;47.474;19.056;2022-08-01T00:55:42;100263.00;;;15.62;77.17
58769;BME280;44536;47.474;19.056;2022-08-01T00:58:44;100258.25;;;15.55;78.29
58769;BME280;44536;47.474;19.056;2022-08-01T01:01:47;100260.38;;;15.52;77.67
58769;BME280;44536;47.474;19.056;2022-08-01T01:04:51;100268.69;;;15.49;77.44
58769;BME280;44536;47.474;19.056;2022-08-01T01:08:02;100271.81;;;15.44;78.31
58769;BME280;44536;47.474;19.056;2022-08-01T01:11:14;100255.78;;;15.44;78.17
58769;BME280;44536;47.474;19.056;2022-08-01T01:18:12;100266.22;;;15.38;79.29
58769;BME280;44536;47.474;19.056;2022-08-01T01:24:31;100269.91;;;15.37;79.79
58769;BME280;44536;47.474;19.056;2022-08-01T01:28:02;100267.81;;;15.31;79.39
58769;BME280;44536;47.474;19.056;2022-08-01T01:31:09;100268.91;;;15.38;79.24
58769;BME280;44536;47.474;19.056;2022-08-01T01:34:13;100263.38;;;15.21;79.86
58769;BME280;44536;47.474;19.056;2022-08-01T01:37:18;100256.63;;;15.17;80.15
58769;BME280;44536;47.474;19.056;2022-08-01T01:40:23;100261.03;;;15.09;80.46
58769;BME280;44536;47.474;19.056;2022-08-01T01:43:27;100256.38;;;15.11;79.93
58769;BME280;44536;47.474;19.056;2022-08-01T01:46:35;100259.84;;;15.21;79.68
58769;BME280;44536;47.474;19.056;2022-08-01T01:49:38;100260.09;;;15.28;80.78
58769;BME280;44536;47.474;19.056;2022-08-01T01:52:42;100255.50;;;15.20;81.41
58769;BME280;44536;47.474;19.056;2022-08-01T01:55:48;100255.25;;;15.13;81.08
58769;BME280;44536;47.474;19.056;2022-08-01T01:58:54;100244.97;;;15.18;81.00
58769;BME280;44536;47.474;19.056;2022-08-01T02:02:04;100240.59;;;15.17;80.85
58769;BME280;44536;47.474;19.056;2022-08-01T02:05:11;100240.31;;;15.20;80.52
58769;BME280;44536;47.474;19.056;2022-08-01T02:08:15;100239.53;;;15.10;81.68
58769;BME280;44536;47.474;19.056;2022-08-01T02:11:19;100242.66;;;15.06;81.65
58769;BME280;44536;47.474;19.056;2022-08-01T02:14:23;100244.25;;;14.99;81.91
58769;BME280;44536;47.474;19.056;2022-08-01T02:17:26;100241.97;;;15.04;81.62
58769;BME280;44536;47.474;19.056;2022-08-01T02:20:30;100240.34;;;14.93;82.22
58769;BME280;44536;47.474;19.056;2022-08-01T02:23:34;100239.50;;;14.93;82.26
58769;BME280;44536;47.474;19.056;2022-08-01T02:26:39;100235.09;;;15.01;81.36
58769;BME280;44536;47.474;19.056;2022-08-01T02:29:53;100241.03;;;14.95;82.26
58769;BME280;44536;47.474;19.056;2022-08-01T02:33:06;100233.72;;;14.97;83.27
58769;BME280;44536;47.474;19.056;2022-08-01T02:36:19;100231.78;;;14.89;83.79
58769;BME280;44536;47.474;19.056;2022-08-01T02:39:36;100229.69;;;14.83;83.95
58769;BME280;44536;47.474;19.056;2022-08-01T02:42:42;100230.25;;;14.87;83.03
58769;BME280;44536;47.474;19.056;2022-08-01T02:45:49;100236.84;;;14.83;82.51
58769;BME280;44536;47.474;19.056;2022-08-01T02:48:55;100225.34;;;14.82;82.70
58769;BME280;44536;47.474;19.056;2022-08-01T02:52:00;100237.28;;;14.78;83.37
58769;BME280;44536;47.474;19.056;2022-08-01T02:55:04;100234.03;;;14.84;83.38
58769;BME280;44536;47.474;19.056;2022-08-01T02:58:09;100238.53;;;14.84;83.72
58769;BME280;44536;47.474;19.056;2022-08-01T03:01:15;100228.84;;;14.83;84.33
58769;BME280;44536;47.474;19.056;2022-08-01T03:04:23;100229.84;;;14.82;84.77
58769;BME280;44536;47.474;19.056;2022-08-01T03:07:26;100216.06;;;14.86;83.85
58769;BME280;44536;47.474;19.056;2022-08-01T03:10:37;100218.03;;;14.84;85.06
58769;BME280;44536;47.474;19.056;2022-08-01T03:13:41;100222.97;;;14.79;84.93
58769;BME280;44536;47.474;19.056;2022-08-01T03:16:46;100224.78;;;14.79;85.23
58769;BME280;44536;47.474;19.056;2022-08-01T03:19:51;100229.00;;;14.81;83.81
58769;BME280;44536;47.474;19.056;2022-08-01T03:22:54;100223.22;;;14.86;84.67
58769;BME280;44536;47.474;19.056;2022-08-01T03:26:00;100220.69;;;14.84;84.31
58769;BME280;44536;47.474;19.056;2022-08-01T03:29:05;100217.84;;;14.96;83.48
58769;BME280;44536;47.474;19.056;2022-08-01T03:32:09;100218.22;;;15.01;83.00
58769;BME280;44536;47.474;19.056;2022-08-01T03:35:12;100207.56;;;15.01;82.50
58769;BME280;44536;47.474;19.056;2022-08-01T03:38:18;100214.97;;;15.07;83.39
58769;BME280;44536;47.474;19.056;2022-08-01T03:41:24;100212.12;;;15.08;83.20
58769;BME280;44536;47.474;19.056;2022-08-01T03:44:28;100212.91;;;15.18;82.46
58769;BME280;44536;47.474;19.056;2022-08-01T03:47:34;100218.41;;;15.17;82.34
58769;BME280;44536;47.474;19.056;2022-08-01T03:50:48;100218.09;;;15.20;82.31
58769;BME280;44536;47.474;19.056;2022-08-01T03:53:53;100214.25;;;15.32;82.03
58769;BME280;44536;47.474;19.056;2022-08-01T03:56:58;100220.66;;;15.39;81.70
58769;BME280;44536;47.474;19.056;2022-08-01T04:00:00;100219.75;;;15.48;81.72
58769;BME280;44536;47.474;19.056;2022-08-01T04:03:13;100225.28;;;15.65;81.23
58769;BME280;44536;47.474;19.056;2022-08-01T04:06:16;100223.84;;;15.88;79.60
58769;BME280;44536;47.474;19.056;2022-08-01T04:09:19;100228.16;;;16.07;77.41
58769;BME280;44536;47.474;19.056;2022-08-01T04:12:23;100237.72;;;16.35;74.45
58769;BME280;44536;47.474;19.056;2022-08-01T04:15:25;100246.41;;;16.55;73.88
58769;BME280;44536;47.474;19.056;2022-08-01T04:18:27;100241.69;;;16.75;72.71
58769;BME280;44536;47.474;19.056;2022-08-01T04:21:32;100245.28;;;16.92;72.50
58769;BME280;44536;47.474;19.056;2022-08-01T04:24:36;100250.72;;;17.08;71.79
58769;BME280;44536;47.474;19.056;2022-08-01T04:27:38;100248.44;;;17.29;72.34
58769;BME280;44536;47.474;19.056;2022-08-01T04:30:54;100242.78;;;17.40;71.31
58769;BME280;44536;47.474;19.056;2022-08-01T04:34:04;100242.78;;;17.40;71.20
58769;BME280;44536;47.474;19.056;2022-08-01T04:37:09;100238.59;;;17.46;69.81
58769;BME280;44536;47.474;19.056;2022-08-01T04:40:14;100249.91;;;17.66;67.59
58769;BME280;44536;47.474;19.056;2022-08-01T04:43:18;100245.91;;;17.94;66.50
58769;BME280;44536;47.474;19.056;2022-08-01T04:46:21;100249.63;;;18.17;65.04
58769;BME280;44536;47.474;19.056;2022-08-01T04:49:24;100248.06;;;18.31;64.39
58769;BME280;44536;47.474;19.056;2022-08-01T04:52:35;100246.06;;;18.41;66.87
58769;BME280;44536;47.474;19.056;2022-08-01T04:55:38;100243.38;;;18.25;66.24
58769;BME280;44536;47.474;19.056;2022-08-01T04:58:41;100243.72;;;18.38;65.81
58769;BME280;44536;47.474;19.056;2022-08-01T05:01:48;100253.75;;;18.69;65.03
58769;BME280;44536;47.474;19.056;2022-08-01T05:04:50;100245.34;;;18.72;63.28
58769;BME280;44536;47.474;19.056;2022-08-01T05:07:53;100242.75;;;18.95;63.96
58769;BME280;44536;47.474;19.056;2022-08-01T05:10:55;100244.75;;;19.01;62.49
58769;BME280;44536;47.474;19.056;2022-08-01T05:13:58;100252.25;;;19.13;63.56
58769;BME280;44536;47.474;19.056;2022-08-01T05:17:05;100251.44;;;19.44;61.47
58769;BME280;44536;47.474;19.056;2022-08-01T05:20:08;100245.62;;;19.86;59.41
58769;BME280;44536;47.474;19.056;2022-08-01T05:23:11;100239.12;;;20.03;58.76
58769;BME280;44536;47.474;19.056;2022-08-01T05:26:34;100247.13;;;20.11;60.21
58769;BME280;44536;47.474;19.056;2022-08-01T05:29:37;100247.97;;;20.12;61.15
58769;BME280;44536;47.474;19.056;2022-08-01T05:32:45;100243.25;;;20.14;60.58
58769;BME280;44536;47.474;19.056;2022-08-01T05:35:48;100247.16;;;20.93;57.81
58769;BME280;44536;47.474;19.056;2022-08-01T05:38:50;100249.66;;;20.95;57.04
58769;BME280;44536;47.474;19.056;2022-08-01T05:41:53;100241.88;;;21.29;57.51
58769;BME280;44536;47.474;19.056;2022-08-01T05:44:55;100249.41;;;22.12;52.95
58769;BME280;44536;47.474;19.056;2022-08-01T05:47:57;100249.97;;;23.87;48.57
58769;BME280;44536;47.474;19.056;2022-08-01T05:51:00;100248.81;;;26.28;43.42
58769;BME280;44536;47.474;19.056;2022-08-01T05:54:02;100248.94;;;30.73;33.49
58769;BME280;44536;47.474;19.056;2022-08-01T05:57:04;100244.16;;;32.27;29.62
58769;BME280;44536;47.474;19.056;2022-08-01T06:00:08;100240.87;;;34.37;25.99
58769;BME280;44536;47.474;19.056;2022-08-01T06:03:12;100240.50;;;33.58;26.34
58769;BME280;44536;47.474;19.056;2022-08-01T06:06:16;100238.19;;;35.87;23.77
58769;BME280;44536;47.474;19.056;2022-08-01T06:09:18;100242.38;;;37.24;22.06
58769;BME280;44536;47.474;19.056;2022-08-01T06:12:21;100243.59;;;40.26;19.07
58769;BME280;44536;47.474;19.056;2022-08-01T06:15:24;100234.59;;;41.22;17.27
58769;BME280;44536;47.474;19.056;2022-08-01T06:18:26;100235.25;;;42.48;16.19
58769;BME280;44536;47.474;19.056;2022-08-01T06:21:28;100243.50;;;41.58;16.64
58769;BME280;44536;47.474;19.056;2022-08-01T06:24:31;100239.00;;;39.99;17.44
58769;BME280;44536;47.474;19.056;2022-08-01T06:27:34;100234.81;;;42.20;16.39
58769;BME280;44536;47.474;19.056;2022-08-01T06:30:37;100247.28;;;40.97;15.70
58769;BME280;44536;47.474;19.056;2022-08-01T06:33:39;100240.25;;;40.15;16.85
58769;BME280;44536;47.474;19.056;2022-08-01T06:36:42;100239.72;;;43.46;14.58
58769;BME280;44536;47.474;19.056;2022-08-01T06:39:44;100249.59;;;44.06;13.63
58769;BME280;44536;47.474;19.056;2022-08-01T06:42:47;100245.84;;;43.81;13.72
58769;BME280;44536;47.474;19.056;2022-08-01T06:45:49;100243.03;;;42.08;15.19
58769;BME280;44536;47.474;19.056;2022-08-01T06:48:52;100246.87;;;40.81;16.67
58769;BME280;44536;47.474;19.056;2022-08-01T06:51:54;100247.19;;;43.04;14.94
58769;BME280;44536;47.474;19.056;2022-08-01T06:54:56;100242.56;;;45.79;12.83
58769;BME280;44536;47.474;19.056;2022-08-01T06:57:58;100238.69;;;47.19;11.78
58769;BME280;44536;47.474;19.056;2022-08-01T07:01:03;100236.91;;;47.81;12.35
58769;BME280;44536;47.474;19.056;2022-08-01T07:04:08;100227.91;;;47.56;11.18
58769;BME280;44536;47.474;19.056;2022-08-01T07:07:10;100235.38;;;48.48;11.01
58769;BME280;44536;47.474;19.056;2022-08-01T07:10:12;100229.91;;;47.74;10.88
58769;BME280;44536;47.474;19.056;2022-08-01T07:13:15;100221.13;;;47.76;10.90
58769;BME280;44536;47.474;19.056;2022-08-01T07:16:22;100222.22;;;47.36;11.30
58769;BME280;44536;47.474;19.056;2022-08-01T07:19:25;100215.25;;;46.95;11.70
58769;BME280;44536;47.474;19.056;2022-08-01T07:22:27;100213.19;;;46.01;12.11
58769;BME280;44536;47.474;19.056;2022-08-01T07:25:31;100210.47;;;47.11;12.00
58769;BME280;44536;47.474;19.056;2022-08-01T07:28:33;100212.63;;;46.24;11.68
58769;BME280;44536;47.474;19.056;2022-08-01T07:31:35;100213.69;;;43.96;12.43
58769;BME280;44536;47.474;19.056;2022-08-01T07:34:37;100217.41;;;38.83;16.37
58769;BME280;44536;47.474;19.056;2022-08-01T07:37:40;100214.91;;;33.42;21.67
58769;BME280;44536;47.474;19.056;2022-08-01T07:40:50;100217.00;;;31.01;25.40
58769;BME280;44536;47.474;19.056;2022-08-01T07:43:52;100206.28;;;29.77;28.10
58769;BME280;44536;47.474;19.056;2022-08-01T07:47:01;100212.00;;;29.75;28.33
58769;BME280;44536;47.474;19.056;2022-08-01T07:50:04;100215.84;;;29.91;29.09
58769;BME280;44536;47.474;19.056;2022-08-01T07:53:07;100218.12;;;30.11;28.74
58769;BME280;44536;47.474;19.056;2022-08-01T07:56:12;100211.88;;;29.98;27.54
58769;BME280;44536;47.474;19.056;2022-08-01T07:59:14;100211.00;;;30.10;27.56
58769;BME280;44536;47.474;19.056;2022-08-01T08:02:27;100206.50;;;30.20;26.76
58769;BME280;44536;47.474;19.056;2022-08-01T08:05:29;100202.03;;;30.65;27.06
58769;BME280;44536;47.474;19.056;2022-08-01T08:08:51;100199.63;;;30.90;25.87
58769;BME280;44536;47.474;19.056;2022-08-01T08:11:55;100205.53;;;30.10;26.98
58769;BME280;44536;47.474;19.056;2022-08-01T08:14:57;100209.53;;;29.74;27.64
58769;BME280;44536;47.474;19.056;2022-08-01T08:18:03;100206.47;;;29.42;28.05
58769;BME280;44536;47.474;19.056;2022-08-01T08:21:06;100201.53;;;30.17;27.87
58769;BME280;44536;47.474;19.056;2022-08-01T08:24:09;100208.84;;;30.12;26.61
58769;BME280;44536;47.474;19.056;2022-08-01T08:27:28;100204.56;;;29.87;27.33
58769;BME280;44536;47.474;19.056;2022-08-01T08:30:30;100203.84;;;29.47;28.44
58769;BME280;44536;47.474;19.056;2022-08-01T08:33:32;100211.56;;;29.10;28.34
58769;BME280;44536;47.474;19.056;2022-08-01T08:36:35;100221.09;;;28.25;29.95
58769;BME280;44536;47.474;19.056;2022-08-01T08:39:39;100225.81;;;27.47;30.99
58769;BME280;44536;47.474;19.056;2022-08-01T08:42:44;100238.00;;;27.26;32.07
58769;BME280;44536;47.474;19.056;2022-08-01T08:45:48;100229.69;;;27.39;32.21
58769;BME280;44536;47.474;19.056;2022-08-01T08:49:03;100238.38;;;27.29;32.22
58769;BME280;44536;47.474;19.056;2022-08-01T08:52:07;100243.09;;;27.71;32.23
58769;BME280;44536;47.474;19.056;2022-08-01T08:55:12;100248.13;;;27.85;31.64
58769;BME280;44536;47.474;19.056;2022-08-01T08:58:17;100247.03;;;27.56;32.06
58769;BME280;44536;47.474;19.056;2022-08-01T09:01:21;100245.22;;;27.68;32.17
58769;BME280;44536;47.474;19.056;2022-08-01T09:04:25;100239.63;;;27.63;32.87
58769;BME280;44536;47.474;19.056;2022-08-01T09:07:28;100249.50;;;27.58;32.61
58769;BME280;44536;47.474;19.056;2022-08-01T09:10:30;100242.97;;;27.47;32.89
58769;BME280;44536;47.474;19.056;2022-08-01T09:13:33;100247.63;;;27.58;33.04
58769;BME280;44536;47.474;19.056;2022-08-01T09:16:37;100249.97;;;27.73;31.64
58769;BME280;44536;47.474;19.056;2022-08-01T09:19:55;100250.87;;;27.97;30.96
58769;BME280;44536;47.474;19.056;2022-08-01T09:23:00;100248.84;;;27.92;32.06
58769;BME280;44536;47.474;19.056;2022-08-01T09:26:02;100245.88;;;28.36;31.00
58769;BME280;44536;47.474;19.056;2022-08-01T09:29:07;100248.13;;;28.74;31.56
58769;BME280;44536;47.474;19.056;2022-08-01T09:32:11;100239.09;;;28.61;30.61
58769;BME280;44536;47.474;19.056;2022-08-01T09:38:32;100242.59;;;29.20;30.41
58769;BME280;44536;47.474;19.056;2022-08-01T09:41:35;100245.31;;;29.44;29.80
58769;BME280;44536;47.474;19.056;2022-08-01T09:44:42;100238.00;;;29.61;30.23
58769;BME280;44536;47.474;19.056;2022-08-01T09:47:56;100245.09;;;29.90;30.53
58769;BME280;44536;47.474;19.056;2022-08-01T09:50:59;100239.84;;;30.01;28.73
58769;BME280;44536;47.474;19.056;2022-08-01T09:54:06;100243.53;;;29.94;29.21
58769;BME280;44536;47.474;19.056;2022-08-01T09:57:17;100243.25;;;30.58;28.87
58769;BME280;44536;47.474;19.056;2022-08-01T10:00:19;100237.03;;;33.10;25.40
58769;BME280;44536;47.474;19.056;2022-08-01T10:03:41;100239.59;;;33.32;24.33
58769;BME280;44536;47.474;19.056;2022-08-01T10:06:46;100235.09;;;32.26;26.06
58769;BME280;44536;47.474;19.056;2022-08-01T10:09:52;100229.47;;;32.11;26.66
58769;BME280;44536;47.474;19.056;2022-08-01T10:12:57;100237.66;;;32.38;26.56
58769;BME280;44536;47.474;19.056;2022-08-01T10:16:01;100235.53;;;31.59;26.65
58769;BME280;44536;47.474;19.056;2022-08-01T10:19:07;100239.03;;;30.89;27.49
58769;BME280;44536;47.474;19.056;2022-08-01T10:22:18;100244.56;;;30.55;27.93
58769;BME280;44536;47.474;19.056;2022-08-01T10:25:21;100237.06;;;30.68;28.12
58769;BME280;44536;47.474;19.056;2022-08-01T10:28:44;100241.06;;;30.43;28.89
58769;BME280;44536;47.474;19.056;2022-08-01T10:31:47;100230.66;;;30.79;28.14
58769;BME280;44536;47.474;19.056;2022-08-01T10:34:52;100239.84;;;30.34;29.38
58769;BME280;44536;47.474;19.056;2022-08-01T10:37:56;100232.28;;;30.41;28.36
58769;BME280;44536;47.474;19.056;2022-08-01T10:41:02;100222.53;;;30.84;28.81
58769;BME280;44536;47.474;19.056;2022-08-01T10:44:09;100223.28;;;31.18;27.93
58769;BME280;44536;47.474;19.056;2022-08-01T10:47:14;100219.19;;;31.42;27.71
58769;BME280;44536;47.474;19.056;2022-08-01T10:50:29;100222.47;;;31.17;27.58
58769;BME280;44536;47.474;19.056;2022-08-01T10:53:33;100223.87;;;31.47;27.04
58769;BME280;44536;47.474;19.056;2022-08-01T10:56:46;100213.75;;;31.47;27.54
58769;BME280;44536;47.474;19.056;2022-08-01T10:59:51;100208.19;;;31.64;27.97
58769;BME280;44536;47.474;19.056;2022-08-01T11:03:02;100220.37;;;31.30;28.78
58769;BME280;44536;47.474;19.056;2022-08-01T11:06:05;100218.22;;;31.32;30.61
58769;BME280;44536;47.474;19.056;2022-08-01T11:12:18;100207.03;;;32.19;28.85
58769;BME280;44536;47.474;19.056;2022-08-01T11:15:26;100198.78;;;32.14;27.17
58769;BME280;44536;47.474;19.056;2022-08-01T11:18:32;100200.88;;;32.02;28.08
58769;BME280;44536;47.474;19.056;2022-08-01T11:25:01;100193.28;;;33.91;27.08
58769;BME280;44536;47.474;19.056;2022-08-01T11:31:36;100192.66;;;35.84;24.83
58769;BME280;44536;47.474;19.056;2022-08-01T11:34:55;100194.44;;;38.03;21.93
58769;BME280;44536;47.474;19.056;2022-08-01T11:38:24;100188.59;;;37.72;21.73
58769;BME280;44536;47.474;19.056;2022-08-01T11:41:34;100186.81;;;38.14;21.09
58769;BME280;44536;47.474;19.056;2022-08-01T11:44:50;100189.63;;;34.67;24.98
58769;BME280;44536;47.474;19.056;2022-08-01T11:47:53;100182.50;;;32.39;28.38
58769;BME280;44536;47.474;19.056;2022-08-01T11:50:56;100188.19;;;32.28;28.75
58769;BME280;44536;47.474;19.056;2022-08-01T11:54:03;100184.03;;;33.19;27.14
58769;BME280;44536;47.474;19.056;2022-08-01T11:57:08;100180.00;;;32.80;27.44
58769;BME280;44536;47.474;19.056;2022-08-01T12:00:17;100177.88;;;32.92;27.50
58769;BME280;44536;47.474;19.056;2022-08-01T12:03:25;100184.94;;;34.82;25.30
58769;BME280;44536;47.474;19.056;2022-08-01T12:06:35;100174.81;;;34.42;24.96
58769;BME280;44536;47.474;19.056;2022-08-01T12:09:37;100178.69;;;35.65;22.69
58769;BME280;44536;47.474;19.056;2022-08-01T12:12:48;100185.25;;;36.66;21.70
58769;BME280;44536;47.474;19.056;2022-08-01T12:15:51;100186.47;;;36.84;22.81
58769;BME280;44536;47.474;19.056;2022-08-01T12:18:57;100182.72;;;36.70;22.33
58769;BME280;44536;47.474;19.056;2022-08-01T12:22:13;100175.66;;;37.30;21.08
58769;BME280;44536;47.474;19.056;2022-08-01T12:25:16;100174.97;;;36.48;21.49
58769;BME280;44536;47.474;19.056;2022-08-01T12:28:19;100170.78;;;36.51;22.25
58769;BME280;44536;47.474;19.056;2022-08-01T12:31:30;100183.37;;;36.62;21.56
58769;BME280;44536;47.474;19.056;2022-08-01T12:34:32;100180.25;;;36.44;21.79
58769;BME280;44536;47.474;19.056;2022-08-01T12:37:37;100174.88;;;36.82;21.57
58769;BME280;44536;47.474;19.056;2022-08-01T12:40:42;100173.09;;;36.67;21.56
58769;BME280;44536;47.474;19.056;2022-08-01T12:43:47;100168.69;;;37.70;21.29
58769;BME280;44536;47.474;19.056;2022-08-01T12:46:50;100159.03;;;37.49;21.92
58769;BME280;44536;47.474;19.056;2022-08-01T12:49:53;100160.88;;;36.73;21.78
58769;BME280;44536;47.474;19.056;2022-08-01T12:52:56;100162.41;;;37.46;20.84
58769;BME280;44536;47.474;19.056;2022-08-01T12:55:59;100156.53;;;37.10;21.46
58769;BME280;44536;47.474;19.056;2022-08-01T12:59:01;100170.09;;;35.28;24.09
58769;BME280;44536;47.474;19.056;2022-08-01T13:02:08;100169.31;;;34.37;24.98
58769;BME280;44536;47.474;19.056;2022-08-01T13:05:11;100162.16;;;34.41;25.03
58769;BME280;44536;47.474;19.056;2022-08-01T13:08:19;100166.03;;;34.00;25.43
58769;BME280;44536;47.474;19.056;2022-08-01T13:11:22;100161.59;;;33.63;25.68
58769;BME280;44536;47.474;19.056;2022-08-01T13:14:28;100161.94;;;32.94;25.99
58769;BME280;44536;47.474;19.056;2022-08-01T13:17:34;100155.28;;;32.80;27.02
58769;BME280;44536;47.474;19.056;2022-08-01T13:20:40;100150.19;;;33.04;26.04
58769;BME280;44536;47.474;19.056;2022-08-01T13:27:20;100149.94;;;32.53;26.96
58769;BME280;44536;47.474;19.056;2022-08-01T13:30:23;100136.88;;;32.28;26.36
58769;BME280;44536;47.474;19.056;2022-08-01T13:33:26;100136.19;;;32.48;26.54
58769;BME280;44536;47.474;19.056;2022-08-01T13:36:31;100137.56;;;32.50;26.57
58769;BME280;44536;47.474;19.056;2022-08-01T13:39:34;100133.03;;;32.29;26.25
58769;BME280;44536;47.474;19.056;2022-08-01T13:42:46;100129.28;;;32.40;27.31
58769;BME280;44536;47.474;19.056;2022-08-01T13:45:48;100125.50;;;32.09;27.79
58769;BME280;44536;47.474;19.056;2022-08-01T13:48:51;100132.50;;;31.63;28.67
58769;BME280;44536;47.474;19.056;2022-08-01T13:51:54;100133.19;;;31.48;29.23
58769;BME280;44536;47.474;19.056;2022-08-01T13:54:58;100123.78;;;31.66;28.86
58769;BME280;44536;47.474;19.056;2022-08-01T13:58:00;100124.91;;;32.02;28.16
58769;BME280;44536;47.474;19.056;2022-08-01T14:01:03;100124.00;;;31.91;27.85
58769;BME280;44536;47.474;19.056;2022-08-01T14:04:07;100130.41;;;31.43;28.90
58769;BME280;44536;47.474;19.056;2022-08-01T14:07:09;100135.06;;;31.16;29.28
58769;BME280;44536;47.474;19.056;2022-08-01T14:10:16;100132.47;;;30.60;30.37
58769;BME280;44536;47.474;19.056;2022-08-01T14:13:21;100130.22;;;30.79;30.97
58769;BME280;44536;47.474;19.056;2022-08-01T14:16:25;100135.19;;;30.44;30.98
58769;BME280;44536;47.474;19.056;2022-08-01T14:19:27;100142.50;;;30.00;31.90
58769;BME280;44536;47.474;19.056;2022-08-01T14:22:40;100136.09;;;30.11;31.43
58769;BME280;44536;47.474;19.056;2022-08-01T14:25:42;100140.94;;;30.25;31.26
58769;BME280;44536;47.474;19.056;2022-08-01T14:29:05;100140.69;;;30.27;30.88
58769;BME280;44536;47.474;19.056;2022-08-01T14:32:07;100147.50;;;30.24;31.02
58769;BME280;44536;47.474;19.056;2022-08-01T14:35:10;100147.00;;;30.27;31.35
58769;BME280;44536;47.474;19.056;2022-08-01T14:38:12;100148.69;;;30.12;31.35
58769;BME280;44536;47.474;19.056;2022-08-01T14:41:30;100148.41;;;30.30;31.13
58769;BME280;44536;47.474;19.056;2022-08-01T14:44:32;100145.34;;;30.26;30.74
58769;BME280;44536;47.474;19.056;2022-08-01T14:47:38;100148.81;;;30.39;31.11
58769;BME280;44536;47.474;19.056;2022-08-01T14:50:41;100133.13;;;30.51;31.13
58769;BME280;44536;47.474;19.056;2022-08-01T14:53:43;100139.91;;;30.48;31.14
58769;BME280;44536;47.474;19.056;2022-08-01T14:56:51;100148.31;;;30.25;31.00
58769;BME280;44536;47.474;19.056;2022-08-01T14:59:55;100155.87;;;30.18;31.36
58769;BME280;44536;47.474;19.056;2022-08-01T15:02:57;100146.22;;;30.10;31.61
58769;BME280;44536;47.474;19.056;2022-08-01T15:06:00;100142.91;;;30.08;31.72
58769;BME280;44536;47.474;19.056;2022-08-01T15:09:02;100141.28;;;29.79;32.13
58769;BME280;44536;47.474;19.056;2022-08-01T15:12:11;100132.72;;;29.42;32.92
58769;BME280;44536;47.474;19.056;2022-08-01T15:15:13;100141.94;;;29.52;33.57
58769;BME280;44536;47.474;19.056;2022-08-01T15:18:16;100130.50;;;29.72;33.14
58769;BME280;44536;47.474;19.056;2022-08-01T15:21:18;100131.19;;;29.96;33.41
58769;BME280;44536;47.474;19.056;2022-08-01T15:24:41;100130.88;;;30.09;32.97
58769;BME280;44536;47.474;19.056;2022-08-01T15:27:43;100134.03;;;30.01;33.17
58769;BME280;44536;47.474;19.056;2022-08-01T15:30:46;100136.81;;;29.89;33.12
58769;BME280;44536;47.474;19.056;2022-08-01T15:33:48;100135.00;;;29.95;33.31
58769;BME280;44536;47.474;19.056;2022-08-01T15:36:51;100134.38;;;30.05;32.66
58769;BME280;44536;47.474;19.056;2022-08-01T15:39:53;100134.41;;;29.93;32.78
58769;BME280;44536;47.474;19.056;2022-08-01T15:42:58;100148.53;;;30.02;32.35
58769;BME280;44536;47.474;19.056;2022-08-01T15:46:00;100145.84;;;29.73;32.40
58769;BME280;44536;47.474;19.056;2022-08-01T15:49:04;100145.50;;;29.70;32.96
58769;BME280;44536;47.474;19.056;2022-08-01T15:52:08;100151.22;;;29.68;32.28
58769;BME280;44536;47.474;19.056;2022-08-01T15:55:22;100147.41;;;29.52;32.65
58769;BME280;44536;47.474;19.056;2022-08-01T15:58:24;100144.09;;;29.39;32.86
58769;BME280;44536;47.474;19.056;2022-08-01T16:01:27;100143.69;;;29.58;32.81
58769;BME280;44536;47.474;19.056;2022-08-01T16:04:29;100139.13;;;29.64;32.93
58769;BME280;44536;47.474;19.056;2022-08-01T16:07:32;100135.66;;;29.52;33.37
58769;BME280;44536;47.474;19.056;2022-08-01T16:10:34;100139.78;;;29.26;33.54
58769;BME280;44536;47.474;19.056;2022-08-01T16:13:36;100145.97;;;29.21;33.64
58769;BME280;44536;47.474;19.056;2022-08-01T16:16:39;100135.03;;;29.21;33.46
58769;BME280;44536;47.474;19.056;2022-08-01T16:19:41;100139.19;;;29.24;33.86